sensor_id;sensor_type;location;lat;lon;timestamp;P1;durP1;ratioP1;P2;durP2;ratioP2
28796;SDS011;24974;54.444;18.560;2023-10-09T00:02:12;4.43;;;2.22;;
28796;SDS011;24974;54.444;18.560;2023-10-09T00:04:44;5.03;;;2.40;;
28796;SDS011;24974;54.444;18.560;2023-10-09T00:07:15;4.90;;;2.25;;
28796;SDS011;24974;54.444;18.560;2023-10-09T00:09:47;7.25;;;2.40;;
28796;SDS011;24974;54.444;18.560;2023-10-09T00:12:18;7.78;;;2.53;;
28796;SDS011;24974;54.444;18.560;2023-10-09T00:14:53;4.80;;;2.10;;
28796;SDS011;24974;54.444;18.560;2023-10-09T00:17:37;6.13;;;2.35;;
28796;SDS011;24974;54.444;18.560;2023-10-09T00:20:10;3.72;;;1.88;;
28796;SDS011;24974;54.444;18.560;2023-10-09T00:22:49;5.55;;;1.90;;
28796;SDS011;24974;54.444;18.560;2023-10-09T00:25:21;6.50;;;2.33;;
28796;SDS011;24974;54.444;18.560;2023-10-09T00:27:54;4.57;;;1.85;;
28796;SDS011;24974;54.444;18.560;2023-10-09T00:30:25;5.47;;;1.98;;
28796;SDS011;24974;54.444;18.560;2023-10-09T00:33:00;7.03;;;2.30;;
28796;SDS011;24974;54.444;18.560;2023-10-09T00:35:38;4.68;;;2.10;;
28796;SDS011;24974;54.444;18.560;2023-10-09T00:38:15;6.70;;;2.05;;
28796;SDS011;24974;54.444;18.560;2023-10-09T00:40:54;5.57;;;1.75;;
28796;SDS011;24974;54.444;18.560;2023-10-09T00:43:35;5.18;;;1.88;;
28796;SDS011;24974;54.444;18.560;2023-10-09T00:46:07;5.82;;;2.15;;
28796;SDS011;24974;54.444;18.560;2023-10-09T00:49:01;4.90;;;2.22;;
28796;SDS011;24974;54.444;18.560;2023-10-09T00:51:33;5.25;;;2.00;;
28796;SDS011;24974;54.444;18.560;2023-10-09T00:54:05;5.20;;;2.08;;
28796;SDS011;24974;54.444;18.560;2023-10-09T00:56:44;6.63;;;2.05;;
28796;SDS011;24974;54.444;18.560;2023-10-09T00:59:22;6.53;;;2.22;;
28796;SDS011;24974;54.444;18.560;2023-10-09T01:01:56;7.03;;;2.05;;
28796;SDS011;24974;54.444;18.560;2023-10-09T01:04:29;4.93;;;2.30;;
28796;SDS011;24974;54.444;18.560;2023-10-09T01:07:07;6.43;;;2.17;;
28796;SDS011;24974;54.444;18.560;2023-10-09T01:09:46;5.53;;;1.70;;
28796;SDS011;24974;54.444;18.560;2023-10-09T01:12:21;5.57;;;2.38;;
28796;SDS011;24974;54.444;18.560;2023-10-09T01:14:52;5.05;;;1.98;;
28796;SDS011;24974;54.444;18.560;2023-10-09T01:17:25;3.97;;;1.73;;
28796;SDS011;24974;54.444;18.560;2023-10-09T01:20:22;4.15;;;1.85;;
28796;SDS011;24974;54.444;18.560;2023-10-09T01:23:03;4.78;;;2.13;;
28796;SDS011;24974;54.444;18.560;2023-10-09T01:25:34;3.70;;;1.67;;
28796;SDS011;24974;54.444;18.560;2023-10-09T01:28:12;3.55;;;2.15;;
28796;SDS011;24974;54.444;18.560;2023-10-09T01:30:46;9.32;;;2.25;;
28796;SDS011;24974;54.444;18.560;2023-10-09T01:33:18;4.65;;;1.88;;
28796;SDS011;24974;54.444;18.560;2023-10-09T01:35:57;2.75;;;1.50;;
28796;SDS011;24974;54.444;18.560;2023-10-09T01:38:30;4.05;;;1.60;;
28796;SDS011;24974;54.444;18.560;2023-10-09T01:41:11;4.95;;;1.55;;
28796;SDS011;24974;54.444;18.560;2023-10-09T01:43:46;3.95;;;1.73;;
28796;SDS011;24974;54.444;18.560;2023-10-09T01:46:21;4.22;;;1.50;;
28796;SDS011;24974;54.444;18.560;2023-10-09T01:48:52;3.67;;;1.60;;
28796;SDS011;24974;54.444;18.560;2023-10-09T01:51:24;3.78;;;1.70;;
28796;SDS011;24974;54.444;18.560;2023-10-09T01:53:55;4.10;;;2.00;;
28796;SDS011;24974;54.444;18.560;2023-10-09T01:56:27;3.28;;;1.70;;
28796;SDS011;24974;54.444;18.560;2023-10-09T01:58:58;3.15;;;1.80;;
28796;SDS011;24974;54.444;18.560;2023-10-09T02:01:36;5.10;;;1.95;;
28796;SDS011;24974;54.444;18.560;2023-10-09T02:04:11;4.70;;;1.83;;
28796;SDS011;24974;54.444;18.560;2023-10-09T02:06:44;3.42;;;1.70;;
28796;SDS011;24974;54.444;18.560;2023-10-09T02:09:15;2.65;;;1.58;;
28796;SDS011;24974;54.444;18.560;2023-10-09T02:11:57;5.40;;;1.98;;
28796;SDS011;24974;54.444;18.560;2023-10-09T02:14:28;4.53;;;1.92;;
28796;SDS011;24974;54.444;18.560;2023-10-09T02:16:59;4.50;;;1.80;;
28796;SDS011;24974;54.444;18.560;2023-10-09T02:19:33;4.32;;;2.00;;
28796;SDS011;24974;54.444;18.560;2023-10-09T02:22:05;6.47;;;2.00;;
28796;SDS011;24974;54.444;18.560;2023-10-09T02:24:45;4.85;;;1.85;;
28796;SDS011;24974;54.444;18.560;2023-10-09T02:27:19;5.15;;;2.17;;
28796;SDS011;24974;54.444;18.560;2023-10-09T02:30:07;5.25;;;2.38;;
28796;SDS011;24974;54.444;18.560;2023-10-09T02:32:53;5.28;;;1.85;;
28796;SDS011;24974;54.444;18.560;2023-10-09T02:38:12;4.68;;;1.98;;
28796;SDS011;24974;54.444;18.560;2023-10-09T02:40:47;7.07;;;1.55;;
28796;SDS011;24974;54.444;18.560;2023-10-09T02:43:33;5.30;;;2.33;;
28796;SDS011;24974;54.444;18.560;2023-10-09T02:46:15;5.40;;;1.88;;
28796;SDS011;24974;54.444;18.560;2023-10-09T02:49:02;10.23;;;2.23;;
28796;SDS011;24974;54.444;18.560;2023-10-09T02:51:40;7.00;;;2.05;;
28796;SDS011;24974;54.444;18.560;2023-10-09T02:54:18;4.57;;;1.85;;
28796;SDS011;24974;54.444;18.560;2023-10-09T02:56:52;5.43;;;1.80;;
28796;SDS011;24974;54.444;18.560;2023-10-09T02:59:35;5.55;;;1.80;;
28796;SDS011;24974;54.444;18.560;2023-10-09T03:02:12;6.85;;;1.88;;
28796;SDS011;24974;54.444;18.560;2023-10-09T03:04:43;5.57;;;1.80;;
28796;SDS011;24974;54.444;18.560;2023-10-09T03:07:14;4.93;;;1.60;;
28796;SDS011;24974;54.444;18.560;2023-10-09T03:09:45;7.93;;;2.15;;
28796;SDS011;24974;54.444;18.560;2023-10-09T03:12:16;4.50;;;1.77;;
28796;SDS011;24974;54.444;18.560;2023-10-09T03:14:49;4.32;;;1.90;;
28796;SDS011;24974;54.444;18.560;2023-10-09T03:17:21;5.60;;;1.73;;
28796;SDS011;24974;54.444;18.560;2023-10-09T03:19:53;2.63;;;1.50;;
28796;SDS011;24974;54.444;18.560;2023-10-09T03:22:25;3.90;;;1.50;;
28796;SDS011;24974;54.444;18.560;2023-10-09T03:24:56;3.47;;;1.88;;
28796;SDS011;24974;54.444;18.560;2023-10-09T03:27:27;5.10;;;1.52;;
28796;SDS011;24974;54.444;18.560;2023-10-09T03:29:58;2.88;;;1.25;;
28796;SDS011;24974;54.444;18.560;2023-10-09T03:32:29;4.93;;;1.75;;
28796;SDS011;24974;54.444;18.560;2023-10-09T03:35:00;4.22;;;1.60;;
28796;SDS011;24974;54.444;18.560;2023-10-09T03:37:33;3.30;;;1.40;;
28796;SDS011;24974;54.444;18.560;2023-10-09T03:40:05;8.90;;;1.95;;
28796;SDS011;24974;54.444;18.560;2023-10-09T03:42:38;4.55;;;2.38;;
28796;SDS011;24974;54.444;18.560;2023-10-09T03:45:12;7.47;;;1.48;;
28796;SDS011;24974;54.444;18.560;2023-10-09T03:47:48;3.87;;;1.60;;
28796;SDS011;24974;54.444;18.560;2023-10-09T03:50:19;6.40;;;1.50;;
28796;SDS011;24974;54.444;18.560;2023-10-09T03:53:06;4.10;;;1.80;;
28796;SDS011;24974;54.444;18.560;2023-10-09T03:55:38;4.20;;;1.63;;
28796;SDS011;24974;54.444;18.560;2023-10-09T03:58:10;5.40;;;1.80;;
28796;SDS011;24974;54.444;18.560;2023-10-09T04:00:45;4.43;;;1.40;;
28796;SDS011;24974;54.444;18.560;2023-10-09T04:03:16;3.58;;;1.65;;
28796;SDS011;24974;54.444;18.560;2023-10-09T04:05:47;4.75;;;1.75;;
28796;SDS011;24974;54.444;18.560;2023-10-09T04:08:22;4.80;;;1.52;;
28796;SDS011;24974;54.444;18.560;2023-10-09T04:11:03;3.22;;;1.40;;
28796;SDS011;24974;54.444;18.560;2023-10-09T04:13:34;6.53;;;1.52;;
28796;SDS011;24974;54.444;18.560;2023-10-09T04:16:05;3.13;;;1.50;;
28796;SDS011;24974;54.444;18.560;2023-10-09T04:18:50;3.08;;;1.40;;
28796;SDS011;24974;54.444;18.560;2023-10-09T04:21:22;5.40;;;1.40;;
28796;SDS011;24974;54.444;18.560;2023-10-09T04:24:08;6.22;;;1.88;;
28796;SDS011;24974;54.444;18.560;2023-10-09T04:29:16;11.73;;;1.67;;
28796;SDS011;24974;54.444;18.560;2023-10-09T04:32:01;2.80;;;1.33;;
28796;SDS011;24974;54.444;18.560;2023-10-09T04:34:32;5.35;;;1.88;;
28796;SDS011;24974;54.444;18.560;2023-10-09T04:37:06;6.03;;;1.50;;
28796;SDS011;24974;54.444;18.560;2023-10-09T04:39:46;3.85;;;1.35;;
28796;SDS011;24974;54.444;18.560;2023-10-09T04:42:31;5.72;;;1.80;;
28796;SDS011;24974;54.444;18.560;2023-10-09T04:45:08;4.07;;;1.90;;
28796;SDS011;24974;54.444;18.560;2023-10-09T04:47:41;4.30;;;1.50;;
28796;SDS011;24974;54.444;18.560;2023-10-09T04:50:26;2.60;;;1.48;;
28796;SDS011;24974;54.444;18.560;2023-10-09T04:53:00;4.88;;;1.52;;
28796;SDS011;24974;54.444;18.560;2023-10-09T04:58:24;4.70;;;1.60;;
28796;SDS011;24974;54.444;18.560;2023-10-09T05:00:56;3.40;;;1.33;;
28796;SDS011;24974;54.444;18.560;2023-10-09T05:03:30;7.38;;;1.90;;
28796;SDS011;24974;54.444;18.560;2023-10-09T05:06:13;3.70;;;1.45;;
28796;SDS011;24974;54.444;18.560;2023-10-09T05:08:59;3.47;;;1.75;;
28796;SDS011;24974;54.444;18.560;2023-10-09T05:11:38;5.00;;;2.13;;
28796;SDS011;24974;54.444;18.560;2023-10-09T05:14:32;3.80;;;1.65;;
28796;SDS011;24974;54.444;18.560;2023-10-09T05:17:23;4.10;;;2.30;;
28796;SDS011;24974;54.444;18.560;2023-10-09T05:19:55;5.50;;;2.08;;
28796;SDS011;24974;54.444;18.560;2023-10-09T05:22:46;3.72;;;2.00;;
28796;SDS011;24974;54.444;18.560;2023-10-09T05:25:31;4.78;;;2.20;;
28796;SDS011;24974;54.444;18.560;2023-10-09T05:28:16;6.22;;;2.20;;
28796;SDS011;24974;54.444;18.560;2023-10-09T05:31:16;5.53;;;2.15;;
28796;SDS011;24974;54.444;18.560;2023-10-09T05:34:01;7.28;;;2.45;;
28796;SDS011;24974;54.444;18.560;2023-10-09T05:36:32;4.63;;;2.15;;
28796;SDS011;24974;54.444;18.560;2023-10-09T05:39:05;3.08;;;1.92;;
28796;SDS011;24974;54.444;18.560;2023-10-09T05:41:50;4.28;;;1.80;;
28796;SDS011;24974;54.444;18.560;2023-10-09T05:44:30;5.07;;;2.10;;
28796;SDS011;24974;54.444;18.560;2023-10-09T05:47:14;5.18;;;2.38;;
28796;SDS011;24974;54.444;18.560;2023-10-09T05:49:59;7.20;;;2.17;;
28796;SDS011;24974;54.444;18.560;2023-10-09T05:52:39;4.20;;;2.00;;
28796;SDS011;24974;54.444;18.560;2023-10-09T05:55:10;5.10;;;2.10;;
28796;SDS011;24974;54.444;18.560;2023-10-09T05:58:01;4.57;;;2.25;;
28796;SDS011;24974;54.444;18.560;2023-10-09T06:00:46;5.82;;;2.20;;
28796;SDS011;24974;54.444;18.560;2023-10-09T06:03:31;6.38;;;2.88;;
28796;SDS011;24974;54.444;18.560;2023-10-09T06:06:16;8.20;;;2.30;;
28796;SDS011;24974;54.444;18.560;2023-10-09T06:09:04;5.35;;;2.17;;
28796;SDS011;24974;54.444;18.560;2023-10-09T06:11:45;6.20;;;2.90;;
28796;SDS011;24974;54.444;18.560;2023-10-09T06:14:21;9.00;;;2.22;;
28796;SDS011;24974;54.444;18.560;2023-10-09T06:16:56;4.85;;;2.15;;
28796;SDS011;24974;54.444;18.560;2023-10-09T06:19:32;6.85;;;2.35;;
28796;SDS011;24974;54.444;18.560;2023-10-09T06:22:13;7.75;;;2.30;;
28796;SDS011;24974;54.444;18.560;2023-10-09T06:25:09;5.22;;;2.08;;
28796;SDS011;24974;54.444;18.560;2023-10-09T06:27:41;7.18;;;2.17;;
28796;SDS011;24974;54.444;18.560;2023-10-09T06:30:34;5.28;;;2.45;;
28796;SDS011;24974;54.444;18.560;2023-10-09T06:33:05;5.75;;;2.30;;
28796;SDS011;24974;54.444;18.560;2023-10-09T06:35:50;8.63;;;3.08;;
28796;SDS011;24974;54.444;18.560;2023-10-09T06:38:24;5.03;;;2.33;;
28796;SDS011;24974;54.444;18.560;2023-10-09T06:41:04;5.75;;;2.58;;
28796;SDS011;24974;54.444;18.560;2023-10-09T06:43:34;7.00;;;2.40;;
28796;SDS011;24974;54.444;18.560;2023-10-09T06:46:16;7.10;;;2.38;;
28796;SDS011;24974;54.444;18.560;2023-10-09T06:48:56;5.65;;;2.25;;
28796;SDS011;24974;54.444;18.560;2023-10-09T06:51:27;5.13;;;2.05;;
28796;SDS011;24974;54.444;18.560;2023-10-09T06:53:58;6.47;;;2.42;;
28796;SDS011;24974;54.444;18.560;2023-10-09T06:56:44;5.88;;;2.47;;
28796;SDS011;24974;54.444;18.560;2023-10-09T06:59:24;8.82;;;2.30;;
28796;SDS011;24974;54.444;18.560;2023-10-09T07:01:55;6.22;;;2.45;;
28796;SDS011;24974;54.444;18.560;2023-10-09T07:04:40;7.82;;;2.28;;
28796;SDS011;24974;54.444;18.560;2023-10-09T07:07:11;6.60;;;2.33;;
28796;SDS011;24974;54.444;18.560;2023-10-09T07:09:47;4.25;;;2.10;;
28796;SDS011;24974;54.444;18.560;2023-10-09T07:12:32;4.43;;;2.05;;
28796;SDS011;24974;54.444;18.560;2023-10-09T07:15:03;8.95;;;2.90;;
28796;SDS011;24974;54.444;18.560;2023-10-09T07:17:37;6.15;;;2.60;;
28796;SDS011;24974;54.444;18.560;2023-10-09T07:20:08;8.50;;;2.20;;
28796;SDS011;24974;54.444;18.560;2023-10-09T07:22:43;7.15;;;3.03;;
28796;SDS011;24974;54.444;18.560;2023-10-09T07:25:23;4.57;;;1.95;;
28796;SDS011;24974;54.444;18.560;2023-10-09T07:28:11;7.25;;;2.42;;
28796;SDS011;24974;54.444;18.560;2023-10-09T07:30:56;7.55;;;2.67;;
28796;SDS011;24974;54.444;18.560;2023-10-09T07:33:30;10.75;;;2.60;;
28796;SDS011;24974;54.444;18.560;2023-10-09T07:36:14;9.18;;;2.40;;
28796;SDS011;24974;54.444;18.560;2023-10-09T07:38:45;7.60;;;2.55;;
28796;SDS011;24974;54.444;18.560;2023-10-09T07:41:16;6.05;;;2.40;;
28796;SDS011;24974;54.444;18.560;2023-10-09T07:43:47;6.55;;;2.08;;
28796;SDS011;24974;54.444;18.560;2023-10-09T07:46:18;6.07;;;2.70;;
28796;SDS011;24974;54.444;18.560;2023-10-09T07:49:03;7.80;;;2.67;;
28796;SDS011;24974;54.444;18.560;2023-10-09T07:51:44;8.10;;;2.50;;
28796;SDS011;24974;54.444;18.560;2023-10-09T07:54:18;6.03;;;2.15;;
28796;SDS011;24974;54.444;18.560;2023-10-09T07:57:03;5.35;;;2.42;;
28796;SDS011;24974;54.444;18.560;2023-10-09T07:59:46;3.90;;;2.05;;
28796;SDS011;24974;54.444;18.560;2023-10-09T08:02:31;4.07;;;1.73;;
28796;SDS011;24974;54.444;18.560;2023-10-09T08:05:02;5.75;;;2.03;;
28796;SDS011;24974;54.444;18.560;2023-10-09T08:07:47;4.20;;;2.03;;
28796;SDS011;24974;54.444;18.560;2023-10-09T08:10:32;4.38;;;1.83;;
28796;SDS011;24974;54.444;18.560;2023-10-09T08:13:03;8.10;;;2.15;;
28796;SDS011;24974;54.444;18.560;2023-10-09T08:15:57;7.13;;;2.20;;
28796;SDS011;24974;54.444;18.560;2023-10-09T08:18:31;6.15;;;2.20;;
28796;SDS011;24974;54.444;18.560;2023-10-09T08:21:15;6.43;;;1.80;;
28796;SDS011;24974;54.444;18.560;2023-10-09T08:23:45;6.20;;;2.08;;
28796;SDS011;24974;54.444;18.560;2023-10-09T08:26:19;4.63;;;1.80;;
28796;SDS011;24974;54.444;18.560;2023-10-09T08:28:59;4.22;;;2.00;;
28796;SDS011;24974;54.444;18.560;2023-10-09T08:31:44;6.50;;;2.30;;
28796;SDS011;24974;54.444;18.560;2023-10-09T08:34:27;5.57;;;1.98;;
28796;SDS011;24974;54.444;18.560;2023-10-09T08:36:58;5.18;;;2.08;;
28796;SDS011;24974;54.444;18.560;2023-10-09T08:39:30;6.03;;;1.77;;
28796;SDS011;24974;54.444;18.560;2023-10-09T08:42:05;4.22;;;1.80;;
28796;SDS011;24974;54.444;18.560;2023-10-09T08:44:38;5.45;;;1.63;;
28796;SDS011;24974;54.444;18.560;2023-10-09T08:47:14;8.53;;;1.83;;
28796;SDS011;24974;54.444;18.560;2023-10-09T08:49:45;7.43;;;1.70;;
28796;SDS011;24974;54.444;18.560;2023-10-09T08:52:16;2.03;;;1.10;;
28796;SDS011;24974;54.444;18.560;2023-10-09T08:54:47;3.25;;;1.35;;
28796;SDS011;24974;54.444;18.560;2023-10-09T08:57:18;4.50;;;1.83;;
28796;SDS011;24974;54.444;18.560;2023-10-09T08:59:49;2.70;;;1.42;;
28796;SDS011;24974;54.444;18.560;2023-10-09T09:02:20;4.85;;;1.73;;
28796;SDS011;24974;54.444;18.560;2023-10-09T09:04:52;2.35;;;1.17;;
28796;SDS011;24974;54.444;18.560;2023-10-09T09:09:59;8.82;;;1.50;;
28796;SDS011;24974;54.444;18.560;2023-10-09T09:12:44;6.50;;;1.40;;
28796;SDS011;24974;54.444;18.560;2023-10-09T09:15:15;5.75;;;1.88;;
28796;SDS011;24974;54.444;18.560;2023-10-09T09:17:50;5.45;;;1.30;;
28796;SDS011;24974;54.444;18.560;2023-10-09T09:20:22;2.72;;;1.23;;
28796;SDS011;24974;54.444;18.560;2023-10-09T09:22:57;3.93;;;1.23;;
28796;SDS011;24974;54.444;18.560;2023-10-09T09:25:39;3.70;;;1.38;;
28796;SDS011;24974;54.444;18.560;2023-10-09T09:28:15;16.45;;;2.90;;
28796;SDS011;24974;54.444;18.560;2023-10-09T09:30:52;3.75;;;1.30;;
28796;SDS011;24974;54.444;18.560;2023-10-09T09:33:25;4.68;;;1.10;;
28796;SDS011;24974;54.444;18.560;2023-10-09T09:36:12;4.55;;;1.00;;
28796;SDS011;24974;54.444;18.560;2023-10-09T09:38:43;1.73;;;1.02;;
28796;SDS011;24974;54.444;18.560;2023-10-09T09:41:18;7.53;;;1.30;;
28796;SDS011;24974;54.444;18.560;2023-10-09T09:43:56;3.53;;;1.20;;
28796;SDS011;24974;54.444;18.560;2023-10-09T09:46:34;4.13;;;1.15;;
28796;SDS011;24974;54.444;18.560;2023-10-09T09:49:07;7.47;;;1.17;;
28796;SDS011;24974;54.444;18.560;2023-10-09T09:51:47;3.40;;;1.05;;
28796;SDS011;24974;54.444;18.560;2023-10-09T09:54:18;2.55;;;1.33;;
28796;SDS011;24974;54.444;18.560;2023-10-09T09:56:52;7.15;;;1.40;;
28796;SDS011;24974;54.444;18.560;2023-10-09T09:59:25;4.93;;;1.10;;
28796;SDS011;24974;54.444;18.560;2023-10-09T10:01:59;4.47;;;1.25;;
28796;SDS011;24974;54.444;18.560;2023-10-09T10:04:39;3.03;;;1.15;;
28796;SDS011;24974;54.444;18.560;2023-10-09T10:07:13;3.63;;;1.02;;
28796;SDS011;24974;54.444;18.560;2023-10-09T10:09:46;2.65;;;1.10;;
28796;SDS011;24974;54.444;18.560;2023-10-09T10:12:48;3.22;;;0.95;;
28796;SDS011;24974;54.444;18.560;2023-10-09T10:18:33;3.42;;;0.90;;
28796;SDS011;24974;54.444;18.560;2023-10-09T10:21:24;2.03;;;0.90;;
28796;SDS011;24974;54.444;18.560;2023-10-09T10:33:02;1.65;;;0.70;;
28796;SDS011;24974;54.444;18.560;2023-10-09T10:35:47;1.63;;;0.80;;
28796;SDS011;24974;54.444;18.560;2023-10-09T10:38:26;5.35;;;1.00;;
28796;SDS011;24974;54.444;18.560;2023-10-09T10:41:20;2.47;;;1.17;;
28796;SDS011;24974;54.444;18.560;2023-10-09T10:43:52;2.38;;;0.70;;
28796;SDS011;24974;54.444;18.560;2023-10-09T10:46:23;3.95;;;0.90;;
28796;SDS011;24974;54.444;18.560;2023-10-09T10:48:54;3.08;;;0.88;;
28796;SDS011;24974;54.444;18.560;2023-10-09T10:51:49;1.38;;;0.60;;
28796;SDS011;24974;54.444;18.560;2023-10-09T10:54:24;4.00;;;0.90;;
28796;SDS011;24974;54.444;18.560;2023-10-09T10:57:01;4.38;;;0.80;;
28796;SDS011;24974;54.444;18.560;2023-10-09T10:59:39;2.15;;;0.80;;
28796;SDS011;24974;54.444;18.560;2023-10-09T11:02:12;3.60;;;1.02;;
28796;SDS011;24974;54.444;18.560;2023-10-09T11:04:45;2.05;;;0.90;;
28796;SDS011;24974;54.444;18.560;2023-10-09T11:07:24;1.00;;;0.60;;
28796;SDS011;24974;54.444;18.560;2023-10-09T11:09:55;2.03;;;0.80;;
28796;SDS011;24974;54.444;18.560;2023-10-09T11:15:12;2.95;;;1.00;;
28796;SDS011;24974;54.444;18.560;2023-10-09T11:17:59;2.13;;;0.80;;
28796;SDS011;24974;54.444;18.560;2023-10-09T11:20:38;2.92;;;0.80;;
28796;SDS011;24974;54.444;18.560;2023-10-09T11:23:09;3.88;;;0.93;;
28796;SDS011;24974;54.444;18.560;2023-10-09T11:25:44;1.08;;;0.65;;
28796;SDS011;24974;54.444;18.560;2023-10-09T11:28:38;1.85;;;0.70;;
28796;SDS011;24974;54.444;18.560;2023-10-09T11:31:23;1.88;;;0.80;;
28796;SDS011;24974;54.444;18.560;2023-10-09T11:33:54;2.85;;;0.82;;
28796;SDS011;24974;54.444;18.560;2023-10-09T11:36:25;4.55;;;0.98;;
28796;SDS011;24974;54.444;18.560;2023-10-09T11:39:02;1.92;;;0.88;;
28796;SDS011;24974;54.444;18.560;2023-10-09T11:41:47;3.38;;;0.77;;
28796;SDS011;24974;54.444;18.560;2023-10-09T11:47:11;4.50;;;0.90;;
28796;SDS011;24974;54.444;18.560;2023-10-09T11:49:58;12.98;;;3.58;;
28796;SDS011;24974;54.444;18.560;2023-10-09T11:52:32;3.13;;;1.73;;
28796;SDS011;24974;54.444;18.560;2023-10-09T11:55:06;3.58;;;1.10;;
28796;SDS011;24974;54.444;18.560;2023-10-09T11:57:37;1.77;;;0.90;;
28796;SDS011;24974;54.444;18.560;2023-10-09T12:00:08;2.90;;;0.95;;
28796;SDS011;24974;54.444;18.560;2023-10-09T12:02:53;1.95;;;0.75;;
28796;SDS011;24974;54.444;18.560;2023-10-09T12:05:24;6.60;;;2.35;;
28796;SDS011;24974;54.444;18.560;2023-10-09T12:07:58;3.60;;;1.00;;
28796;SDS011;24974;54.444;18.560;2023-10-09T12:10:31;1.60;;;0.80;;
28796;SDS011;24974;54.444;18.560;2023-10-09T12:13:05;1.95;;;0.85;;
28796;SDS011;24974;54.444;18.560;2023-10-09T12:15:37;2.13;;;1.00;;
28796;SDS011;24974;54.444;18.560;2023-10-09T12:18:08;2.60;;;1.10;;
28796;SDS011;24974;54.444;18.560;2023-10-09T12:20:44;4.47;;;1.00;;
28796;SDS011;24974;54.444;18.560;2023-10-09T12:25:53;2.85;;;1.20;;
28796;SDS011;24974;54.444;18.560;2023-10-09T12:28:26;4.22;;;1.63;;
28796;SDS011;24974;54.444;18.560;2023-10-09T12:30:58;2.72;;;0.77;;
28796;SDS011;24974;54.444;18.560;2023-10-09T12:33:33;2.25;;;0.68;;
28796;SDS011;24974;54.444;18.560;2023-10-09T12:38:53;2.38;;;0.98;;
28796;SDS011;24974;54.444;18.560;2023-10-09T12:41:28;4.03;;;1.10;;
28796;SDS011;24974;54.444;18.560;2023-10-09T12:44:03;6.18;;;3.83;;
28796;SDS011;24974;54.444;18.560;2023-10-09T12:46:35;7.40;;;3.65;;
28796;SDS011;24974;54.444;18.560;2023-10-09T12:49:07;3.50;;;1.30;;
28796;SDS011;24974;54.444;18.560;2023-10-09T12:51:39;2.80;;;1.38;;
28796;SDS011;24974;54.444;18.560;2023-10-09T12:54:10;1.95;;;1.00;;
28796;SDS011;24974;54.444;18.560;2023-10-09T12:56:45;3.05;;;1.00;;
28796;SDS011;24974;54.444;18.560;2023-10-09T12:59:19;2.83;;;1.73;;
28796;SDS011;24974;54.444;18.560;2023-10-09T13:01:51;5.03;;;1.13;;
28796;SDS011;24974;54.444;18.560;2023-10-09T13:04:28;1.23;;;0.73;;
28796;SDS011;24974;54.444;18.560;2023-10-09T13:07:02;1.20;;;0.70;;
28796;SDS011;24974;54.444;18.560;2023-10-09T13:09:34;1.60;;;0.80;;
28796;SDS011;24974;54.444;18.560;2023-10-09T13:12:06;1.50;;;0.80;;
28796;SDS011;24974;54.444;18.560;2023-10-09T13:14:48;1.60;;;0.70;;
28796;SDS011;24974;54.444;18.560;2023-10-09T13:17:20;0.93;;;0.50;;
28796;SDS011;24974;54.444;18.560;2023-10-09T13:19:52;1.20;;;0.70;;
28796;SDS011;24974;54.444;18.560;2023-10-09T13:22:25;2.00;;;1.00;;
28796;SDS011;24974;54.444;18.560;2023-10-09T13:24:55;5.53;;;1.85;;
28796;SDS011;24974;54.444;18.560;2023-10-09T13:27:34;6.05;;;1.45;;
28796;SDS011;24974;54.444;18.560;2023-10-09T13:30:06;3.13;;;1.13;;
28796;SDS011;24974;54.444;18.560;2023-10-09T13:32:39;14.50;;;8.05;;
28796;SDS011;24974;54.444;18.560;2023-10-09T13:35:10;11.52;;;5.70;;
28796;SDS011;24974;54.444;18.560;2023-10-09T13:37:44;7.93;;;2.70;;
28796;SDS011;24974;54.444;18.560;2023-10-09T13:40:24;3.78;;;1.60;;
28796;SDS011;24974;54.444;18.560;2023-10-09T13:42:57;3.97;;;1.40;;
28796;SDS011;24974;54.444;18.560;2023-10-09T13:45:31;6.88;;;2.58;;
28796;SDS011;24974;54.444;18.560;2023-10-09T13:48:03;3.65;;;1.05;;
28796;SDS011;24974;54.444;18.560;2023-10-09T13:50:34;2.10;;;0.93;;
28796;SDS011;24974;54.444;18.560;2023-10-09T13:53:13;9.95;;;0.70;;
28796;SDS011;24974;54.444;18.560;2023-10-09T13:55:46;2.47;;;1.38;;
28796;SDS011;24974;54.444;18.560;2023-10-09T13:58:17;4.63;;;1.42;;
28796;SDS011;24974;54.444;18.560;2023-10-09T14:00:51;4.18;;;0.95;;
28796;SDS011;24974;54.444;18.560;2023-10-09T14:03:23;1.90;;;0.70;;
28796;SDS011;24974;54.444;18.560;2023-10-09T14:05:54;4.05;;;1.00;;
28796;SDS011;24974;54.444;18.560;2023-10-09T14:08:27;3.22;;;0.93;;
28796;SDS011;24974;54.444;18.560;2023-10-09T14:10:59;1.20;;;0.70;;
28796;SDS011;24974;54.444;18.560;2023-10-09T14:13:30;1.65;;;0.60;;
28796;SDS011;24974;54.444;18.560;2023-10-09T14:16:01;3.47;;;1.00;;
28796;SDS011;24974;54.444;18.560;2023-10-09T14:18:33;3.95;;;1.50;;
28796;SDS011;24974;54.444;18.560;2023-10-09T14:21:04;3.35;;;1.17;;
28796;SDS011;24974;54.444;18.560;2023-10-09T14:23:35;4.28;;;1.20;;
28796;SDS011;24974;54.444;18.560;2023-10-09T14:26:06;4.43;;;1.17;;
28796;SDS011;24974;54.444;18.560;2023-10-09T14:28:37;1.40;;;0.45;;
28796;SDS011;24974;54.444;18.560;2023-10-09T14:31:08;3.30;;;0.70;;
28796;SDS011;24974;54.444;18.560;2023-10-09T14:33:42;2.50;;;0.80;;
28796;SDS011;24974;54.444;18.560;2023-10-09T14:36:19;1.63;;;0.90;;
28796;SDS011;24974;54.444;18.560;2023-10-09T14:38:52;3.75;;;0.85;;
28796;SDS011;24974;54.444;18.560;2023-10-09T14:41:23;3.75;;;0.93;;
28796;SDS011;24974;54.444;18.560;2023-10-09T14:43:56;2.88;;;1.00;;
28796;SDS011;24974;54.444;18.560;2023-10-09T14:46:29;1.55;;;0.70;;
28796;SDS011;24974;54.444;18.560;2023-10-09T14:49:00;3.28;;;0.77;;
28796;SDS011;24974;54.444;18.560;2023-10-09T14:51:31;2.25;;;0.75;;
28796;SDS011;24974;54.444;18.560;2023-10-09T14:54:02;3.88;;;1.10;;
28796;SDS011;24974;54.444;18.560;2023-10-09T14:56:33;4.40;;;1.08;;
28796;SDS011;24974;54.444;18.560;2023-10-09T14:59:07;3.03;;;0.80;;
28796;SDS011;24974;54.444;18.560;2023-10-09T15:01:38;3.17;;;0.77;;
28796;SDS011;24974;54.444;18.560;2023-10-09T15:04:09;2.28;;;0.93;;
28796;SDS011;24974;54.444;18.560;2023-10-09T15:06:45;4.57;;;0.70;;
28796;SDS011;24974;54.444;18.560;2023-10-09T15:09:19;2.88;;;0.90;;
28796;SDS011;24974;54.444;18.560;2023-10-09T15:11:53;2.30;;;0.80;;
28796;SDS011;24974;54.444;18.560;2023-10-09T15:14:25;4.75;;;0.90;;
28796;SDS011;24974;54.444;18.560;2023-10-09T15:16:56;3.70;;;0.82;;
28796;SDS011;24974;54.444;18.560;2023-10-09T15:19:26;2.92;;;0.80;;
28796;SDS011;24974;54.444;18.560;2023-10-09T15:22:00;2.35;;;0.65;;
28796;SDS011;24974;54.444;18.560;2023-10-09T15:24:31;3.72;;;0.90;;
28796;SDS011;24974;54.444;18.560;2023-10-09T15:27:02;3.83;;;1.23;;
28796;SDS011;24974;54.444;18.560;2023-10-09T15:29:36;5.20;;;0.93;;
28796;SDS011;24974;54.444;18.560;2023-10-09T15:32:12;2.58;;;0.98;;
28796;SDS011;24974;54.444;18.560;2023-10-09T15:34:45;1.98;;;0.80;;
28796;SDS011;24974;54.444;18.560;2023-10-09T15:37:16;4.07;;;1.00;;
28796;SDS011;24974;54.444;18.560;2023-10-09T15:39:48;3.78;;;1.00;;
28796;SDS011;24974;54.444;18.560;2023-10-09T15:42:20;2.33;;;0.90;;
28796;SDS011;24974;54.444;18.560;2023-10-09T15:44:51;4.63;;;0.82;;
28796;SDS011;24974;54.444;18.560;2023-10-09T15:47:25;5.20;;;1.33;;
28796;SDS011;24974;54.444;18.560;2023-10-09T15:49:56;4.20;;;1.00;;
28796;SDS011;24974;54.444;18.560;2023-10-09T15:52:27;2.25;;;1.10;;
28796;SDS011;24974;54.444;18.560;2023-10-09T15:54:58;4.13;;;1.17;;
28796;SDS011;24974;54.444;18.560;2023-10-09T15:57:28;3.47;;;1.08;;
28796;SDS011;24974;54.444;18.560;2023-10-09T16:00:01;7.70;;;1.30;;